sensor_id;sensor_type;location;lat;lon;timestamp;pressure;altitude;pressure_sealevel;temperature;humidity
62374;BME280;48409;49.030;1.820;2023-02-14T00:00:34;102564.69;;;3.82;63.99
62374;BME280;48409;49.030;1.820;2023-02-14T00:02:59;102572.47;;;3.81;63.93
62374;BME280;48409;49.030;1.820;2023-02-14T00:05:25;102564.63;;;3.79;63.89
62374;BME280;48409;49.030;1.820;2023-02-14T00:07:50;102563.72;;;3.75;63.73
62374;BME280;48409;49.030;1.820;2023-02-14T00:10:15;102564.56;;;3.73;63.92
62374;BME280;48409;49.030;1.820;2023-02-14T00:12:41;102562.81;;;3.72;64.04
62374;BME280;48409;49.030;1.820;2023-02-14T00:15:06;102569.75;;;3.70;63.91
62374;BME280;48409;49.030;1.820;2023-02-14T00:17:51;102561.88;;;3.68;63.96
62374;BME280;48409;49.030;1.820;2023-02-14T00:20:17;102560.13;;;3.65;63.68
62374;BME280;48409;49.030;1.820;2023-02-14T00:22:42;102554.00;;;3.62;63.80
62374;BME280;48409;49.030;1.820;2023-02-14T00:25:07;102559.19;;;3.60;63.80
62374;BME280;48409;49.030;1.820;2023-02-14T00:27:33;102557.44;;;3.59;63.90
62374;BME280;48409;49.030;1.820;2023-02-14T00:29:58;102559.19;;;3.57;63.81
62374;BME280;48409;49.030;1.820;2023-02-14T00:32:27;102560.00;;;3.56;63.91
62374;BME280;48409;49.030;1.820;2023-02-14T00:34:52;102558.25;;;3.53;63.94
62374;BME280;48409;49.030;1.820;2023-02-14T00:37:17;102548.66;;;3.51;63.80
62374;BME280;48409;49.030;1.820;2023-02-14T00:39:42;102552.13;;;3.50;63.68
62374;BME280;48409;49.030;1.820;2023-02-14T00:42:08;102548.59;;;3.48;63.83
62374;BME280;48409;49.030;1.820;2023-02-14T00:44:33;102548.59;;;3.46;63.97
62374;BME280;48409;49.030;1.820;2023-02-14T00:46:58;102540.75;;;3.45;63.95
62374;BME280;48409;49.030;1.820;2023-02-14T00:49:23;102533.78;;;3.44;63.87
62374;BME280;48409;49.030;1.820;2023-02-14T00:51:49;102540.72;;;3.42;63.73
62374;BME280;48409;49.030;1.820;2023-02-14T00:54:14;102537.22;;;3.39;63.71
62374;BME280;48409;49.030;1.820;2023-02-14T00:56:39;102530.25;;;3.38;63.78
62374;BME280;48409;49.030;1.820;2023-02-14T00:59:05;102530.22;;;3.35;63.92
62374;BME280;48409;49.030;1.820;2023-02-14T01:01:30;102523.25;;;3.34;63.94
62374;BME280;48409;49.030;1.820;2023-02-14T01:03:55;102523.25;;;3.33;64.06
62374;BME280;48409;49.030;1.820;2023-02-14T01:06:22;102524.94;;;3.31;63.97
62374;BME280;48409;49.030;1.820;2023-02-14T01:08:48;102522.31;;;3.29;63.72
62374;BME280;48409;49.030;1.820;2023-02-14T01:11:14;102518.81;;;3.27;63.80
62374;BME280;48409;49.030;1.820;2023-02-14T01:13:41;102517.06;;;3.28;63.72
62374;BME280;48409;49.030;1.820;2023-02-14T01:16:07;102522.25;;;3.26;63.64
62374;BME280;48409;49.030;1.820;2023-02-14T01:18:33;102502.25;;;3.22;63.99
62374;BME280;48409;49.030;1.820;2023-02-14T01:21:13;102509.19;;;3.21;64.09
62374;BME280;48409;49.030;1.820;2023-02-14T01:23:38;102521.28;;;3.19;63.91
62374;BME280;48409;49.030;1.820;2023-02-14T01:26:07;102516.09;;;3.19;63.86
62374;BME280;48409;49.030;1.820;2023-02-14T01:28:33;102518.66;;;3.16;63.88
62374;BME280;48409;49.030;1.820;2023-02-14T01:33:40;102523.84;;;3.15;63.77
62374;BME280;48409;49.030;1.820;2023-02-14T01:36:05;102527.28;;;3.12;63.88
62374;BME280;48409;49.030;1.820;2023-02-14T01:38:31;102532.53;;;3.13;63.80
62374;BME280;48409;49.030;1.820;2023-02-14T01:40:56;102533.31;;;3.09;63.71
62374;BME280;48409;49.030;1.820;2023-02-14T01:43:21;102528.94;;;3.08;64.03
62374;BME280;48409;49.030;1.820;2023-02-14T01:45:47;102535.88;;;3.06;63.87
62374;BME280;48409;49.030;1.820;2023-02-14T01:48:12;102536.72;;;3.04;63.72
62374;BME280;48409;49.030;1.820;2023-02-14T01:50:39;102535.81;;;3.03;64.04
62374;BME280;48409;49.030;1.820;2023-02-14T01:53:14;102534.06;;;3.02;64.07
62374;BME280;48409;49.030;1.820;2023-02-14T01:55:43;102524.53;;;3.01;63.76
62374;BME280;48409;49.030;1.820;2023-02-14T01:58:20;102532.31;;;3.01;63.76
62374;BME280;48409;49.030;1.820;2023-02-14T02:00:47;102528.81;;;2.99;63.99
62374;BME280;48409;49.030;1.820;2023-02-14T02:03:27;102534.03;;;2.99;63.69
62374;BME280;48409;49.030;1.820;2023-02-14T02:05:57;102526.22;;;2.97;63.70
62374;BME280;48409;49.030;1.820;2023-02-14T02:08:23;102527.00;;;2.95;63.98
62374;BME280;48409;49.030;1.820;2023-02-14T02:10:49;102525.25;;;2.94;63.88
62374;BME280;48409;49.030;1.820;2023-02-14T02:13:16;102533.06;;;2.94;64.00
62374;BME280;48409;49.030;1.820;2023-02-14T02:16:01;102525.25;;;2.94;63.66
62374;BME280;48409;49.030;1.820;2023-02-14T02:31:33;102518.19;;;2.83;63.90
62374;BME280;48409;49.030;1.820;2023-02-14T02:34:12;102519.88;;;2.81;63.85
62374;BME280;48409;49.030;1.820;2023-02-14T02:36:48;102512.91;;;2.80;63.74
62374;BME280;48409;49.030;1.820;2023-02-14T02:44:54;102518.06;;;2.77;63.92
62374;BME280;48409;49.030;1.820;2023-02-14T02:49:55;102505.00;;;2.72;63.71
62374;BME280;48409;49.030;1.820;2023-02-14T02:52:48;102509.31;;;2.72;63.88
62374;BME280;48409;49.030;1.820;2023-02-14T02:58:42;102502.31;;;2.68;63.95
62374;BME280;48409;49.030;1.820;2023-02-14T03:01:10;102499.69;;;2.66;63.86
62374;BME280;48409;49.030;1.820;2023-02-14T03:03:37;102504.06;;;2.69;63.81
62374;BME280;48409;49.030;1.820;2023-02-14T03:06:23;102504.03;;;2.66;63.74
62374;BME280;48409;49.030;1.820;2023-02-14T03:08:48;102498.81;;;2.66;63.67
62374;BME280;48409;49.030;1.820;2023-02-14T03:11:14;102501.38;;;2.64;63.99
62374;BME280;48409;49.030;1.820;2023-02-14T03:13:46;102500.53;;;2.65;63.94
62374;BME280;48409;49.030;1.820;2023-02-14T03:16:38;102495.28;;;2.64;63.52
62374;BME280;48409;49.030;1.820;2023-02-14T03:29:25;102490.88;;;2.59;63.82
62374;BME280;48409;49.030;1.820;2023-02-14T03:34:21;102495.28;;;2.60;63.92
62374;BME280;48409;49.030;1.820;2023-02-14T03:37:01;102493.50;;;2.59;63.89
62374;BME280;48409;49.030;1.820;2023-02-14T03:42:00;102499.53;;;2.57;63.53
62374;BME280;48409;49.030;1.820;2023-02-14T03:44:29;102494.31;;;2.55;63.69
62374;BME280;48409;49.030;1.820;2023-02-14T03:47:18;102495.16;;;2.54;63.63
62374;BME280;48409;49.030;1.820;2023-02-14T03:49:43;102493.41;;;2.53;63.90
62374;BME280;48409;49.030;1.820;2023-02-14T03:52:09;102496.91;;;2.54;63.58
62374;BME280;48409;49.030;1.820;2023-02-14T03:54:35;102496.00;;;2.53;63.54
62374;BME280;48409;49.030;1.820;2023-02-14T03:57:04;102489.91;;;2.51;63.88
62374;BME280;48409;49.030;1.820;2023-02-14T03:59:32;102496.84;;;2.51;63.59
62374;BME280;48409;49.030;1.820;2023-02-14T04:02:03;102498.53;;;2.50;63.55
62374;BME280;48409;49.030;1.820;2023-02-14T04:04:31;102496.78;;;2.47;63.66
62374;BME280;48409;49.030;1.820;2023-02-14T04:06:57;102499.38;;;2.47;63.88
62374;BME280;48409;49.030;1.820;2023-02-14T04:09:22;102499.34;;;2.46;63.70
62374;BME280;48409;49.030;1.820;2023-02-14T04:11:48;102489.78;;;2.45;63.59
62374;BME280;48409;49.030;1.820;2023-02-14T04:14:14;102488.06;;;2.44;63.55
62374;BME280;48409;49.030;1.820;2023-02-14T04:16:40;102493.22;;;2.42;63.51
62374;BME280;48409;49.030;1.820;2023-02-14T04:19:24;102494.06;;;2.41;63.55
62374;BME280;48409;49.030;1.820;2023-02-14T04:21:50;102493.19;;;2.41;63.55
62374;BME280;48409;49.030;1.820;2023-02-14T04:24:15;102498.41;;;2.41;63.48
62374;BME280;48409;49.030;1.820;2023-02-14T04:26:41;102498.38;;;2.38;63.42
62374;BME280;48409;49.030;1.820;2023-02-14T04:29:20;102489.69;;;2.39;63.63
62374;BME280;48409;49.030;1.820;2023-02-14T04:31:46;102500.97;;;2.38;63.64
62374;BME280;48409;49.030;1.820;2023-02-14T04:34:11;102498.31;;;2.34;63.40
62374;BME280;48409;49.030;1.820;2023-02-14T04:36:36;102510.44;;;2.35;63.76
62374;BME280;48409;49.030;1.820;2023-02-14T04:39:02;102503.50;;;2.34;63.48
62374;BME280;48409;49.030;1.820;2023-02-14T04:41:27;102510.44;;;2.35;63.42
62374;BME280;48409;49.030;1.820;2023-02-14T04:43:52;102503.50;;;2.34;63.52
62374;BME280;48409;49.030;1.820;2023-02-14T04:46:17;102503.50;;;2.34;63.43
62374;BME280;48409;49.030;1.820;2023-02-14T04:48:43;102496.56;;;2.33;63.66
62374;BME280;48409;49.030;1.820;2023-02-14T04:51:08;102504.34;;;2.33;63.64
62374;BME280;48409;49.030;1.820;2023-02-14T04:53:33;102504.31;;;2.32;63.47
62374;BME280;48409;49.030;1.820;2023-02-14T04:56:04;102500.84;;;2.31;63.47
62374;BME280;48409;49.030;1.820;2023-02-14T04:58:29;102504.28;;;2.30;63.41
62374;BME280;48409;49.030;1.820;2023-02-14T05:00:54;102506.91;;;2.30;63.42
62374;BME280;48409;49.030;1.820;2023-02-14T05:03:19;102498.19;;;2.28;63.49
62374;BME280;48409;49.030;1.820;2023-02-14T05:05:45;102499.88;;;2.26;63.41
62374;BME280;48409;49.030;1.820;2023-02-14T05:08:10;102499.00;;;2.24;63.49
62374;BME280;48409;49.030;1.820;2023-02-14T05:10:35;102496.41;;;2.24;63.55
62374;BME280;48409;49.030;1.820;2023-02-14T05:13:00;102487.69;;;2.22;63.48
62374;BME280;48409;49.030;1.820;2023-02-14T05:15:26;102498.06;;;2.22;63.41
62374;BME280;48409;49.030;1.820;2023-02-14T05:17:51;102494.59;;;2.21;63.59
62374;BME280;48409;49.030;1.820;2023-02-14T05:20:16;102486.78;;;2.20;63.55
62374;BME280;48409;49.030;1.820;2023-02-14T05:22:41;102489.38;;;2.20;63.33
62374;BME280;48409;49.030;1.820;2023-02-14T05:25:07;102494.59;;;2.20;63.46
62374;BME280;48409;49.030;1.820;2023-02-14T05:27:32;102489.34;;;2.18;63.36
62374;BME280;48409;49.030;1.820;2023-02-14T05:29:57;102489.34;;;2.18;63.64
62374;BME280;48409;49.030;1.820;2023-02-14T05:32:22;102492.81;;;2.19;63.35
62374;BME280;48409;49.030;1.820;2023-02-14T05:34:48;102483.28;;;2.18;63.43
62374;BME280;48409;49.030;1.820;2023-02-14T05:37:13;102492.81;;;2.19;63.40
62374;BME280;48409;49.030;1.820;2023-02-14T05:39:38;102490.19;;;2.17;63.64
62374;BME280;48409;49.030;1.820;2023-02-14T05:42:03;102496.31;;;2.19;63.51
62374;BME280;48409;49.030;1.820;2023-02-14T05:44:29;102491.97;;;2.18;63.47
62374;BME280;48409;49.030;1.820;2023-02-14T05:46:54;102495.44;;;2.20;63.71
62374;BME280;48409;49.030;1.820;2023-02-14T05:49:19;102496.34;;;2.21;63.69
62374;BME280;48409;49.030;1.820;2023-02-14T05:51:44;102496.34;;;2.21;63.73
62374;BME280;48409;49.030;1.820;2023-02-14T05:54:10;102503.28;;;2.22;63.61
62374;BME280;48409;49.030;1.820;2023-02-14T05:56:35;102507.59;;;2.21;63.70
62374;BME280;48409;49.030;1.820;2023-02-14T05:59:00;102502.38;;;2.21;63.72
62374;BME280;48409;49.030;1.820;2023-02-14T06:01:25;102504.16;;;2.22;63.38
62374;BME280;48409;49.030;1.820;2023-02-14T06:03:51;102496.34;;;2.21;63.63
62374;BME280;48409;49.030;1.820;2023-02-14T06:06:16;102496.38;;;2.22;63.41
62374;BME280;48409;49.030;1.820;2023-02-14T06:08:41;102500.69;;;2.22;63.61
62374;BME280;48409;49.030;1.820;2023-02-14T06:11:06;102497.19;;;2.21;63.43
62374;BME280;48409;49.030;1.820;2023-02-14T06:13:31;102498.06;;;2.22;63.43
62374;BME280;48409;49.030;1.820;2023-02-14T06:15:57;102499.81;;;2.23;63.42
62374;BME280;48409;49.030;1.820;2023-02-14T06:18:22;102500.69;;;2.22;63.62
62374;BME280;48409;49.030;1.820;2023-02-14T06:20:51;102492.88;;;2.22;63.72
62374;BME280;48409;49.030;1.820;2023-02-14T06:23:17;102495.50;;;2.24;63.36
62374;BME280;48409;49.030;1.820;2023-02-14T06:25:42;102498.06;;;2.22;63.55
62374;BME280;48409;49.030;1.820;2023-02-14T06:28:07;102497.22;;;2.23;63.52
62374;BME280;48409;49.030;1.820;2023-02-14T06:30:32;102501.59;;;2.24;63.48
62374;BME280;48409;49.030;1.820;2023-02-14T06:32:58;102505.06;;;2.25;63.34
62374;BME280;48409;49.030;1.820;2023-02-14T06:35:23;102501.59;;;2.24;63.66
62374;BME280;48409;49.030;1.820;2023-02-14T06:37:48;102504.19;;;2.24;63.54
62374;BME280;48409;49.030;1.820;2023-02-14T06:40:14;102505.91;;;2.24;63.56
62374;BME280;48409;49.030;1.820;2023-02-14T06:42:39;102508.53;;;2.25;63.54
62374;BME280;48409;49.030;1.820;2023-02-14T06:45:05;102511.19;;;2.27;63.56
62374;BME280;48409;49.030;1.820;2023-02-14T06:47:30;102510.28;;;2.26;63.48
62374;BME280;48409;49.030;1.820;2023-02-14T06:49:55;102505.09;;;2.26;63.70
62374;BME280;48409;49.030;1.820;2023-02-14T06:52:20;102509.44;;;2.27;63.53
62374;BME280;48409;49.030;1.820;2023-02-14T06:54:46;102512.03;;;2.27;63.64
62374;BME280;48409;49.030;1.820;2023-02-14T06:57:11;102505.09;;;2.26;63.63
62374;BME280;48409;49.030;1.820;2023-02-14T06:59:36;102512.88;;;2.26;63.45
62374;BME280;48409;49.030;1.820;2023-02-14T07:02:02;102509.41;;;2.26;63.30
62374;BME280;48409;49.030;1.820;2023-02-14T07:04:27;102504.19;;;2.26;63.80
62374;BME280;48409;49.030;1.820;2023-02-14T07:06:53;102502.50;;;2.26;63.41
62374;BME280;48409;49.030;1.820;2023-02-14T07:09:18;102500.78;;;2.27;63.66
62374;BME280;48409;49.030;1.820;2023-02-14T07:11:43;102499.88;;;2.26;63.46
62374;BME280;48409;49.030;1.820;2023-02-14T07:14:09;102498.19;;;2.28;63.74
62374;BME280;48409;49.030;1.820;2023-02-14T07:16:34;102506.91;;;2.30;63.62
62374;BME280;48409;49.030;1.820;2023-02-14T07:18:59;102506.00;;;2.30;63.69
62374;BME280;48409;49.030;1.820;2023-02-14T07:21:25;102501.69;;;2.30;63.42
62374;BME280;48409;49.030;1.820;2023-02-14T07:23:50;102505.16;;;2.29;63.83
62374;BME280;48409;49.030;1.820;2023-02-14T07:26:15;102504.31;;;2.32;63.59
62374;BME280;48409;49.030;1.820;2023-02-14T07:28:43;102510.38;;;2.32;63.44
62374;BME280;48409;49.030;1.820;2023-02-14T07:31:08;102506.97;;;2.33;63.65
62374;BME280;48409;49.030;1.820;2023-02-14T07:33:33;102501.75;;;2.33;63.83
62374;BME280;48409;49.030;1.820;2023-02-14T07:36:02;102503.50;;;2.34;63.51
62374;BME280;48409;49.030;1.820;2023-02-14T07:38:27;102506.13;;;2.36;63.48
62374;BME280;48409;49.030;1.820;2023-02-14T07:40:54;102507.00;;;2.37;63.96
62374;BME280;48409;49.030;1.820;2023-02-14T07:43:19;102507.00;;;2.37;63.82
62374;BME280;48409;49.030;1.820;2023-02-14T07:45:44;102508.78;;;2.38;63.54
62374;BME280;48409;49.030;1.820;2023-02-14T07:48:10;102509.66;;;2.40;63.74
62374;BME280;48409;49.030;1.820;2023-02-14T07:50:35;102512.28;;;2.41;63.67
62374;BME280;48409;49.030;1.820;2023-02-14T07:53:01;102505.34;;;2.42;63.68
62374;BME280;48409;49.030;1.820;2023-02-14T07:55:26;102514.06;;;2.44;63.78
62374;BME280;48409;49.030;1.820;2023-02-14T07:57:51;102508.00;;;2.45;63.71
62374;BME280;48409;49.030;1.820;2023-02-14T08:00:17;102508.91;;;2.47;63.82
62374;BME280;48409;49.030;1.820;2023-02-14T08:02:43;102506.31;;;2.47;63.89
62374;BME280;48409;49.030;1.820;2023-02-14T08:05:08;102514.16;;;2.48;63.96
62374;BME280;48409;49.030;1.820;2023-02-14T08:07:33;102514.16;;;2.50;63.76
62374;BME280;48409;49.030;1.820;2023-02-14T08:09:59;102515.94;;;2.53;63.71
62374;BME280;48409;49.030;1.820;2023-02-14T08:12:24;102513.31;;;2.53;63.86
62374;BME280;48409;49.030;1.820;2023-02-14T08:15:08;102495.16;;;2.54;63.86
62374;BME280;48409;49.030;1.820;2023-02-14T08:17:52;102498.66;;;2.56;63.83
62374;BME280;48409;49.030;1.820;2023-02-14T08:20:17;102503.00;;;2.57;64.09
62374;BME280;48409;49.030;1.820;2023-02-14T08:22:42;102505.69;;;2.60;63.92
62374;BME280;48409;49.030;1.820;2023-02-14T08:25:08;102501.31;;;2.61;63.80
62374;BME280;48409;49.030;1.820;2023-02-14T08:27:33;102501.34;;;2.63;63.83
62374;BME280;48409;49.030;1.820;2023-02-14T08:29:58;102502.28;;;2.65;63.88
62374;BME280;48409;49.030;1.820;2023-02-14T08:32:24;102496.22;;;2.66;63.94
62374;BME280;48409;49.030;1.820;2023-02-14T08:34:49;102498.88;;;2.69;63.82
62374;BME280;48409;49.030;1.820;2023-02-14T08:37:14;102494.53;;;2.69;63.87
62374;BME280;48409;49.030;1.820;2023-02-14T08:39:39;102498.03;;;2.71;63.91
62374;BME280;48409;49.030;1.820;2023-02-14T08:42:05;102496.28;;;2.72;64.11
62374;BME280;48409;49.030;1.820;2023-02-14T08:44:30;102490.28;;;2.76;63.95
62374;BME280;48409;49.030;1.820;2023-02-14T08:46:55;102497.25;;;2.77;64.25
62374;BME280;48409;49.030;1.820;2023-02-14T08:49:21;102512.06;;;2.80;63.95
62374;BME280;48409;49.030;1.820;2023-02-14T08:51:46;102504.25;;;2.81;64.15
62374;BME280;48409;49.030;1.820;2023-02-14T08:54:11;102514.75;;;2.86;64.32
62374;BME280;48409;49.030;1.820;2023-02-14T08:56:36;102502.63;;;2.86;64.16
62374;BME280;48409;49.030;1.820;2023-02-14T08:59:02;102495.69;;;2.89;64.11
62374;BME280;48409;49.030;1.820;2023-02-14T09:01:28;102497.50;;;2.93;64.12
62374;BME280;48409;49.030;1.820;2023-02-14T09:03:53;102493.16;;;2.95;64.28
62374;BME280;48409;49.030;1.820;2023-02-14T09:06:19;102488.00;;;2.96;64.28
62374;BME280;48409;49.030;1.820;2023-02-14T09:08:44;102503.66;;;2.99;64.49
62374;BME280;48409;49.030;1.820;2023-02-14T09:11:14;102506.31;;;3.03;64.37
62374;BME280;48409;49.030;1.820;2023-02-14T09:13:40;102506.34;;;3.06;64.33
62374;BME280;48409;49.030;1.820;2023-02-14T09:16:06;102498.56;;;3.07;64.32
62374;BME280;48409;49.030;1.820;2023-02-14T09:18:32;102500.34;;;3.11;64.25
62374;BME280;48409;49.030;1.820;2023-02-14T09:20:57;102508.22;;;3.15;64.31
62374;BME280;48409;49.030;1.820;2023-02-14T09:23:23;102501.28;;;3.17;64.09
62374;BME280;48409;49.030;1.820;2023-02-14T09:25:48;102497.88;;;3.21;64.51
62374;BME280;48409;49.030;1.820;2023-02-14T09:28:13;102490.09;;;3.22;64.52
62374;BME280;48409;49.030;1.820;2023-02-14T09:30:39;102495.38;;;3.27;64.36
62374;BME280;48409;49.030;1.820;2023-02-14T09:33:04;102501.47;;;3.29;64.38
62374;BME280;48409;49.030;1.820;2023-02-14T09:35:30;102492.84;;;3.33;64.55
62374;BME280;48409;49.030;1.820;2023-02-14T09:38:14;102492.88;;;3.36;64.49
62374;BME280;48409;49.030;1.820;2023-02-14T09:40:42;102496.38;;;3.38;64.49
62374;BME280;48409;49.030;1.820;2023-02-14T09:43:09;102487.75;;;3.43;64.51
62374;BME280;48409;49.030;1.820;2023-02-14T09:45:37;102489.53;;;3.47;64.54
62374;BME280;48409;49.030;1.820;2023-02-14T09:50:48;102486.16;;;3.54;64.44
62374;BME280;48409;49.030;1.820;2023-02-14T09:58:27;102475.00;;;3.66;64.61
62374;BME280;48409;49.030;1.820;2023-02-14T10:03:41;102476.00;;;3.76;64.69
62374;BME280;48409;49.030;1.820;2023-02-14T10:11:21;102468.34;;;3.95;65.22
62374;BME280;48409;49.030;1.820;2023-02-14T10:14:03;102471.03;;;4.02;65.10
62374;BME280;48409;49.030;1.820;2023-02-14T10:16:32;102472.00;;;4.12;65.24
62374;BME280;48409;49.030;1.820;2023-02-14T10:19:03;102465.13;;;4.21;65.34
62374;BME280;48409;49.030;1.820;2023-02-14T10:21:31;102464.31;;;4.28;65.33
62374;BME280;48409;49.030;1.820;2023-02-14T10:24:03;102460.94;;;4.38;65.73
62374;BME280;48409;49.030;1.820;2023-02-14T10:26:37;102461.00;;;4.48;65.70
62374;BME280;48409;49.030;1.820;2023-02-14T10:29:05;102468.03;;;4.58;66.02
62374;BME280;48409;49.030;1.820;2023-02-14T10:31:42;102460.28;;;4.69;66.06
62374;BME280;48409;49.030;1.820;2023-02-14T10:39:25;102450.94;;;5.07;66.56
62374;BME280;48409;49.030;1.820;2023-02-14T10:41:57;102448.41;;;5.21;66.81
62374;BME280;48409;49.030;1.820;2023-02-14T10:47:01;102447.63;;;5.52;66.95
62374;BME280;48409;49.030;1.820;2023-02-14T10:49:40;102443.34;;;5.66;67.10
62374;BME280;48409;49.030;1.820;2023-02-14T10:54:51;102432.06;;;5.98;67.45
62374;BME280;48409;49.030;1.820;2023-02-14T10:57:28;102434.72;;;6.14;67.29
62374;BME280;48409;49.030;1.820;2023-02-14T11:02:23;102432.09;;;6.45;67.65
62374;BME280;48409;49.030;1.820;2023-02-14T11:04:49;102426.84;;;6.61;67.63
62374;BME280;48409;49.030;1.820;2023-02-14T11:07:15;102424.22;;;6.75;67.71
62374;BME280;48409;49.030;1.820;2023-02-14T11:09:41;102426.78;;;6.92;67.78
62374;BME280;48409;49.030;1.820;2023-02-14T11:12:06;102424.09;;;7.08;67.60
62374;BME280;48409;49.030;1.820;2023-02-14T11:14:35;102417.97;;;7.21;67.56
62374;BME280;48409;49.030;1.820;2023-02-14T11:17:19;102415.25;;;7.37;67.72
62374;BME280;48409;49.030;1.820;2023-02-14T11:19:54;102403.81;;;7.50;67.55
62374;BME280;48409;49.030;1.820;2023-02-14T11:22:33;102403.75;;;7.63;67.65
62374;BME280;48409;49.030;1.820;2023-02-14T11:25:05;102402.78;;;7.75;67.54
62374;BME280;48409;49.030;1.820;2023-02-14T11:27:31;102397.47;;;7.86;67.27
62374;BME280;48409;49.030;1.820;2023-02-14T11:29:57;102391.25;;;7.96;67.22
62374;BME280;48409;49.030;1.820;2023-02-14T11:32:23;102392.06;;;8.04;67.25
62374;BME280;48409;49.030;1.820;2023-02-14T11:39:46;102376.13;;;8.28;66.98
62374;BME280;48409;49.030;1.820;2023-02-14T11:45:35;102362.91;;;8.39;66.72
62374;BME280;48409;49.030;1.820;2023-02-14T11:51:00;102370.69;;;8.49;66.50
62374;BME280;48409;49.030;1.820;2023-02-14T11:53:27;102353.13;;;8.52;66.44
62374;BME280;48409;49.030;1.820;2023-02-14T11:55:54;102354.91;;;8.54;66.39
62374;BME280;48409;49.030;1.820;2023-02-14T12:00:54;102346.09;;;8.58;66.22
62374;BME280;48409;49.030;1.820;2023-02-14T12:03:19;102343.44;;;8.61;66.17
62374;BME280;48409;49.030;1.820;2023-02-14T12:05:46;102338.19;;;8.61;66.28
62374;BME280;48409;49.030;1.820;2023-02-14T12:08:12;102341.66;;;8.64;66.15
62374;BME280;48409;49.030;1.820;2023-02-14T12:10:38;102338.16;;;8.65;66.12
62374;BME280;48409;49.030;1.820;2023-02-14T12:15:37;102329.38;;;8.66;66.09
62374;BME280;48409;49.030;1.820;2023-02-14T12:18:19;102324.13;;;8.66;66.11
62374;BME280;48409;49.030;1.820;2023-02-14T12:20:50;102320.59;;;8.67;65.98
62374;BME280;48409;49.030;1.820;2023-02-14T12:23:17;102314.47;;;8.68;66.04
62374;BME280;48409;49.030;1.820;2023-02-14T12:25:47;102309.19;;;8.69;65.98
62374;BME280;48409;49.030;1.820;2023-02-14T12:28:15;102311.78;;;8.71;65.94
62374;BME280;48409;49.030;1.820;2023-02-14T12:30:42;102304.78;;;8.73;65.96
62374;BME280;48409;49.030;1.820;2023-02-14T12:33:17;102296.88;;;8.74;66.01
62374;BME280;48409;49.030;1.820;2023-02-14T12:40:44;102288.03;;;8.80;66.20
62374;BME280;48409;49.030;1.820;2023-02-14T13:03:51;102262.25;;;9.07;65.85
62374;BME280;48409;49.030;1.820;2023-02-14T13:06:34;102255.22;;;9.09;66.04
62374;BME280;48409;49.030;1.820;2023-02-14T13:11:33;102249.03;;;9.15;65.87
62374;BME280;48409;49.030;1.820;2023-02-14T13:21:56;102236.53;;;9.28;65.94
62374;BME280;48409;49.030;1.820;2023-02-14T13:24:23;102238.22;;;9.32;65.83
62374;BME280;48409;49.030;1.820;2023-02-14T13:26:50;102225.94;;;9.34;65.95
62374;BME280;48409;49.030;1.820;2023-02-14T13:29:20;102223.22;;;9.37;65.77
62374;BME280;48409;49.030;1.820;2023-02-14T13:31:47;102217.94;;;9.40;65.73
62374;BME280;48409;49.030;1.820;2023-02-14T13:36:47;102216.94;;;9.48;65.83
62374;BME280;48409;49.030;1.820;2023-02-14T13:39:19;102209.88;;;9.50;65.85
62374;BME280;48409;49.030;1.820;2023-02-14T13:41:46;102207.22;;;9.53;65.84
62374;BME280;48409;49.030;1.820;2023-02-14T13:44:12;102196.66;;;9.56;65.70
62374;BME280;48409;49.030;1.820;2023-02-14T13:46:57;102199.19;;;9.59;65.80
62374;BME280;48409;49.030;1.820;2023-02-14T13:49:26;102193.00;;;9.62;65.67
62374;BME280;48409;49.030;1.820;2023-02-14T13:51:54;102193.84;;;9.65;65.85
62374;BME280;48409;49.030;1.820;2023-02-14T13:54:27;102189.38;;;9.69;65.63
62374;BME280;48409;49.030;1.820;2023-02-14T13:56:54;102192.81;;;9.73;65.66
62374;BME280;48409;49.030;1.820;2023-02-14T13:59:24;102185.78;;;9.75;65.66
62374;BME280;48409;49.030;1.820;2023-02-14T14:01:50;102182.19;;;9.79;65.78
62374;BME280;48409;49.030;1.820;2023-02-14T14:17:30;102159.03;;;9.98;65.81
62374;BME280;48409;49.030;1.820;2023-02-14T14:19:56;102153.66;;;10.03;65.63
62374;BME280;48409;49.030;1.820;2023-02-14T14:22:22;102153.59;;;10.06;65.65
62374;BME280;48409;49.030;1.820;2023-02-14T14:24:57;102157.03;;;10.08;65.58
62374;BME280;48409;49.030;1.820;2023-02-14T14:27:44;102157.88;;;10.12;65.56
62374;BME280;48409;49.030;1.820;2023-02-14T14:30:27;102144.66;;;10.13;65.54
62374;BME280;48409;49.030;1.820;2023-02-14T14:32:54;102155.13;;;10.16;65.55
62374;BME280;48409;49.030;1.820;2023-02-14T14:35:21;102151.56;;;10.19;65.55
62374;BME280;48409;49.030;1.820;2023-02-14T14:37:51;102146.25;;;10.21;65.56
62374;BME280;48409;49.030;1.820;2023-02-14T14:40:31;102144.47;;;10.23;65.52
62374;BME280;48409;49.030;1.820;2023-02-14T14:43:05;102147.94;;;10.25;65.55
62374;BME280;48409;49.030;1.820;2023-02-14T14:45:31;102140.03;;;10.25;65.35
62374;BME280;48409;49.030;1.820;2023-02-14T14:47:57;102139.97;;;10.28;65.44
62374;BME280;48409;49.030;1.820;2023-02-14T14:50:30;102137.34;;;10.28;65.30
62374;BME280;48409;49.030;1.820;2023-02-14T14:52:58;102137.31;;;10.29;65.45
62374;BME280;48409;49.030;1.820;2023-02-14T14:55:30;102135.53;;;10.30;65.25
62374;BME280;48409;49.030;1.820;2023-02-14T14:57:56;102133.75;;;10.32;65.32
62374;BME280;48409;49.030;1.820;2023-02-14T15:00:26;102140.72;;;10.33;65.24
62374;BME280;48409;49.030;1.820;2023-02-14T15:05:25;102140.72;;;10.35;65.17
62374;BME280;48409;49.030;1.820;2023-02-14T15:07:50;102134.56;;;10.34;65.23
62374;BME280;48409;49.030;1.820;2023-02-14T15:10:22;102136.28;;;10.35;65.12
62374;BME280;48409;49.030;1.820;2023-02-14T15:12:49;102129.25;;;10.36;65.07
62374;BME280;48409;49.030;1.820;2023-02-14T15:15:33;102137.13;;;10.37;65.07
62374;BME280;48409;49.030;1.820;2023-02-14T15:17:58;102126.59;;;10.37;65.20
62374;BME280;48409;49.030;1.820;2023-02-14T15:20:28;102123.97;;;10.37;65.05
62374;BME280;48409;49.030;1.820;2023-02-14T15:22:53;102116.06;;;10.37;65.14
62374;BME280;48409;49.030;1.820;2023-02-14T15:25:19;102115.16;;;10.38;65.14